createdAt,value
2023-03-15T00:03:07.563Z,4.27
2023-03-15T00:08:09.604Z,4.80
2023-03-15T00:13:13.013Z,5.90
2023-03-15T00:18:15.886Z,5.90
2023-03-15T00:23:18.065Z,6.80
2023-03-15T00:28:20.773Z,7.20
2023-03-15T00:33:22.758Z,7.87
2023-03-15T00:38:24.612Z,7.43
2023-03-15T00:43:26.578Z,7.53
2023-03-15T00:48:28.822Z,7.03
2023-03-15T00:53:31.100Z,6.20
2023-03-15T00:58:33.049Z,7.73
2023-03-15T01:03:36.913Z,6.30
2023-03-15T01:08:39.674Z,5.47
2023-03-15T01:13:41.679Z,4.70
2023-03-15T01:18:44.007Z,4.20
2023-03-15T01:23:46.217Z,3.67
2023-03-15T01:28:48.342Z,3.87
2023-03-15T01:33:50.524Z,1.93
2023-03-15T01:38:54.878Z,1.70
2023-03-15T01:44:02.544Z,1.50
2023-03-15T01:49:22.833Z,1.13
2023-03-15T01:54:37.124Z,1.57
2023-03-15T01:59:43.472Z,1.30
2023-03-15T02:04:53.148Z,1.47
2023-03-15T02:10:03.621Z,1.60
2023-03-15T02:15:11.550Z,1.83
2023-03-15T02:20:13.604Z,2.10
2023-03-15T02:25:31.230Z,2.03
2023-03-15T02:30:34.062Z,1.87
2023-03-15T02:35:38.294Z,2.00
2023-03-15T02:40:40.897Z,2.40
2023-03-15T02:45:43.018Z,2.23
2023-03-15T02:50:45.207Z,2.20
2023-03-15T02:55:47.263Z,2.00
2023-03-15T03:00:49.244Z,2.50
2023-03-15T03:05:53.804Z,2.03
2023-03-15T03:10:56.082Z,2.00
2023-03-15T03:15:59.166Z,2.70
2023-03-15T03:21:07.661Z,2.63
2023-03-15T03:26:16.732Z,3.10
2023-03-15T03:31:25.236Z,2.67
2023-03-15T03:36:28.818Z,3.27
2023-03-15T03:41:30.953Z,3.53
2023-03-15T03:46:33.644Z,3.50
2023-03-15T03:51:36.344Z,3.83
2023-03-15T03:56:39.172Z,4.73
2023-03-15T04:01:42.305Z,5.23
2023-03-15T04:06:46.895Z,4.40
2023-03-15T04:11:53.367Z,4.73
2023-03-15T04:16:55.949Z,4.90
2023-03-15T04:21:58.332Z,6.17
2023-03-15T04:27:26.506Z,5.50
2023-03-15T04:32:37.478Z,5.53
2023-03-15T04:37:47.912Z,4.60
2023-03-15T04:43:13.110Z,4.47
2023-03-15T04:48:29.183Z,5.47
2023-03-15T04:54:03.724Z,5.03
2023-03-15T04:59:24.080Z,5.87
2023-03-15T05:04:43.622Z,5.50
2023-03-15T05:09:53.302Z,5.57
2023-03-15T05:15:13.996Z,6.80
2023-03-15T05:20:32.024Z,6.23
2023-03-15T05:26:06.201Z,6.77
2023-03-15T05:31:20.965Z,6.77
2023-03-15T05:36:44.625Z,7.00
2023-03-15T05:41:48.973Z,7.13
2023-03-15T05:47:20.590Z,8.57
2023-03-15T05:52:36.576Z,7.27
2023-03-15T05:57:55.722Z,7.47
2023-03-15T06:03:23.919Z,9.13
2023-03-15T06:08:36.535Z,8.90
2023-03-15T06:13:38.530Z,8.87
2023-03-15T06:18:48.411Z,7.67
2023-03-15T06:23:50.689Z,9.53
2023-03-15T06:28:53.841Z,10.23
2023-03-15T06:33:55.830Z,11.00
2023-03-15T06:38:57.876Z,11.90
2023-03-15T06:44:00.331Z,15.10
2023-03-15T06:49:03.327Z,13.47
2023-03-15T06:54:05.694Z,11.03
2023-03-15T06:59:10.280Z,9.53
2023-03-15T07:04:12.312Z,10.87
2023-03-15T07:09:14.314Z,10.40
2023-03-15T07:14:16.175Z,10.13
2023-03-15T07:19:17.968Z,8.87
2023-03-15T07:24:20.116Z,8.03
2023-03-15T07:29:23.550Z,7.60
2023-03-15T07:34:26.264Z,7.43
2023-03-15T07:39:29.109Z,6.90
2023-03-15T07:44:31.344Z,7.13
2023-03-15T07:49:34.565Z,6.67
2023-03-15T07:54:36.497Z,6.50
2023-03-15T07:59:38.396Z,7.67
2023-03-15T08:04:40.888Z,6.73
2023-03-15T08:09:44.023Z,5.07
2023-03-15T08:14:45.830Z,4.77
2023-03-15T08:19:47.961Z,4.67
2023-03-15T08:24:53.253Z,5.07
2023-03-15T08:29:55.140Z,4.67
2023-03-15T08:34:57.139Z,5.20
2023-03-15T08:40:04.814Z,4.93
2023-03-15T08:45:08.674Z,4.33
2023-03-15T08:50:15.485Z,5.27
2023-03-15T08:55:18.032Z,4.43
2023-03-15T09:00:22.609Z,4.43
2023-03-15T09:05:25.299Z,3.37
2023-03-15T09:10:27.479Z,3.17
2023-03-15T09:15:29.282Z,3.23
2023-03-15T09:20:31.930Z,1.80
2023-03-15T09:25:33.956Z,2.00
2023-03-15T09:30:38.271Z,2.20
2023-03-15T09:35:41.867Z,1.97
2023-03-15T09:40:47.507Z,2.00
2023-03-15T09:46:22.057Z,1.70
2023-03-15T09:51:42.077Z,2.10
2023-03-15T09:56:58.402Z,1.50
2023-03-15T10:02:13.282Z,1.93
2023-03-15T10:07:16.602Z,1.40
2023-03-15T10:12:26.331Z,1.50
2023-03-15T10:17:56.276Z,1.53
2023-03-15T10:23:18.695Z,1.87
2023-03-15T10:28:25.849Z,2.30
2023-03-15T10:33:34.382Z,1.80
2023-03-15T10:38:36.429Z,1.90
2023-03-15T10:43:39.909Z,2.13
2023-03-15T10:49:08.869Z,2.13
2023-03-15T10:54:22.067Z,1.40
2023-03-15T10:59:26.918Z,1.73
2023-03-15T11:04:32.493Z,2.00
2023-03-15T11:09:55.550Z,2.20
2023-03-15T11:15:00.265Z,1.98
2023-03-15T11:20:16.508Z,2.40
2023-03-15T11:25:18.549Z,2.40
2023-03-15T11:30:28.755Z,2.20
2023-03-15T11:35:41.188Z,2.17
2023-03-15T11:40:47.521Z,2.45
2023-03-15T11:45:58.897Z,2.28
2023-03-15T11:51:35.734Z,2.20
2023-03-15T11:56:43.789Z,2.45
2023-03-15T12:02:10.488Z,1.90
2023-03-15T12:07:18.802Z,2.00
2023-03-15T12:12:23.871Z,1.90
2023-03-15T12:17:28.885Z,2.30
2023-03-15T12:22:33.156Z,2.60
2023-03-15T12:27:37.674Z,2.33
2023-03-15T12:32:48.895Z,2.30
2023-03-15T12:37:53.213Z,2.20
2023-03-15T12:42:57.280Z,2.33
2023-03-15T12:47:59.620Z,2.00
2023-03-15T12:53:04.982Z,2.13
2023-03-15T12:58:11.756Z,2.42
2023-03-15T13:03:16.814Z,1.90
2023-03-15T13:08:30.884Z,1.97
2023-03-15T13:13:51.676Z,1.83
2023-03-15T13:19:15.813Z,2.00
2023-03-15T13:24:35.685Z,2.10
2023-03-15T13:29:37.942Z,1.70
2023-03-15T13:34:40.938Z,2.17
2023-03-15T13:39:53.989Z,1.80
2023-03-15T13:45:05.909Z,1.80
2023-03-15T13:50:08.882Z,1.80
2023-03-15T13:55:22.768Z,1.80
2023-03-15T14:00:26.895Z,2.03
2023-03-15T14:05:32.423Z,1.47
2023-03-15T14:10:36.943Z,1.33
2023-03-15T14:15:44.329Z,1.40
2023-03-15T14:21:08.197Z,1.30
2023-03-15T14:26:23.427Z,1.43
2023-03-15T14:31:32.330Z,1.17
2023-03-15T14:36:41.942Z,1.10
2023-03-15T14:41:44.136Z,1.20
2023-03-15T14:46:46.003Z,1.23
2023-03-15T14:51:53.926Z,1.17
2023-03-15T14:56:56.369Z,1.20
2023-03-15T15:02:00.076Z,0.80
2023-03-15T15:07:03.045Z,1.07
2023-03-15T15:12:05.502Z,1.10
2023-03-15T15:17:07.744Z,0.90
2023-03-15T15:22:11.080Z,0.90
2023-03-15T15:27:14.139Z,1.10
2023-03-15T15:32:16.260Z,0.70
2023-03-15T15:37:18.321Z,1.47
2023-03-15T15:42:20.491Z,1.73
2023-03-15T15:47:22.432Z,1.00
2023-03-15T15:52:24.480Z,0.97
2023-03-15T15:57:26.531Z,0.90
2023-03-15T16:02:28.720Z,0.93
2023-03-15T16:07:31.056Z,0.90
2023-03-15T16:12:34.388Z,0.90
2023-03-15T16:17:36.416Z,0.80
2023-03-15T16:22:40.840Z,1.07
2023-03-15T16:27:43.431Z,1.10
2023-03-15T16:32:45.330Z,1.00
2023-03-15T16:37:47.518Z,0.90
2023-03-15T16:42:50.576Z,0.97
2023-03-15T16:47:52.991Z,1.10
2023-03-15T16:52:57.540Z,1.07
2023-03-15T16:58:23.999Z,1.60
2023-03-15T17:03:27.649Z,1.37
2023-03-15T17:08:29.610Z,1.40
2023-03-15T17:13:32.773Z,1.80
2023-03-15T17:18:34.910Z,2.70
2023-03-15T17:23:36.736Z,2.80
2023-03-15T17:28:38.835Z,3.63
2023-03-15T17:33:41.335Z,2.00
2023-03-15T17:38:43.858Z,2.03
2023-03-15T17:43:46.410Z,1.87
2023-03-15T17:48:48.968Z,1.40
2023-03-15T17:53:51.930Z,1.50
2023-03-15T17:58:54.179Z,1.60
2023-03-15T18:03:57.029Z,1.80
2023-03-15T18:08:59.253Z,3.23
2023-03-15T18:14:01.639Z,3.80
2023-03-15T18:19:03.426Z,6.70
2023-03-15T18:24:05.595Z,4.47
2023-03-15T18:29:07.694Z,4.57
2023-03-15T18:34:15.633Z,3.53
2023-03-15T18:39:17.703Z,2.50
2023-03-15T18:44:19.787Z,3.67
2023-03-15T18:49:21.740Z,3.80
2023-03-15T18:54:24.778Z,6.37
2023-03-15T18:59:26.742Z,6.60
2023-03-15T19:04:28.544Z,7.27
2023-03-15T19:09:30.455Z,4.27
2023-03-15T19:14:32.478Z,3.10
2023-03-15T19:19:35.138Z,4.63
2023-03-15T19:24:37.383Z,2.87
2023-03-15T19:29:39.374Z,3.17
2023-03-15T19:34:41.405Z,3.43
2023-03-15T19:39:43.407Z,4.53
2023-03-15T19:44:47.394Z,4.13
2023-03-15T19:49:49.373Z,3.20
2023-03-15T19:54:51.787Z,3.90
2023-03-15T19:59:54.091Z,3.30
2023-03-15T20:04:56.319Z,3.87
2023-03-15T20:09:58.477Z,3.70
2023-03-15T20:15:01.392Z,3.40
2023-03-15T20:20:11.495Z,3.83
2023-03-15T20:25:15.507Z,4.23
2023-03-15T20:30:17.925Z,4.43
2023-03-15T20:35:20.153Z,5.10
2023-03-15T20:40:22.670Z,5.27
2023-03-15T20:45:25.146Z,6.03
2023-03-15T20:50:27.256Z,5.17
2023-03-15T20:55:29.304Z,5.07
2023-03-15T21:00:31.940Z,5.17
2023-03-15T21:05:34.105Z,5.83
2023-03-15T21:10:37.708Z,5.47
2023-03-15T21:15:47.398Z,5.03
2023-03-15T21:20:58.289Z,4.77
2023-03-15T21:26:03.746Z,4.90
2023-03-15T21:31:06.817Z,5.00
2023-03-15T21:36:20.856Z,4.90
2023-03-15T21:41:23.135Z,4.63
2023-03-15T21:46:25.074Z,3.97
2023-03-15T21:51:28.664Z,4.57
2023-03-15T21:56:31.671Z,5.13
2023-03-15T22:01:33.616Z,4.50
2023-03-15T22:06:35.714Z,4.23
2023-03-15T22:11:37.834Z,4.93
2023-03-15T22:16:39.924Z,4.90
2023-03-15T22:21:42.284Z,4.70
2023-03-15T22:26:47.598Z,4.90
2023-03-15T22:31:49.564Z,5.03
2023-03-15T22:36:52.757Z,4.93
2023-03-15T22:41:54.704Z,4.33
2023-03-15T22:46:56.678Z,4.53
2023-03-15T22:51:59.016Z,4.13
2023-03-15T22:57:01.531Z,3.70
2023-03-15T23:02:04.269Z,4.10
2023-03-15T23:07:06.098Z,3.67
2023-03-15T23:12:08.884Z,4.60
2023-03-15T23:17:11.763Z,3.63
2023-03-15T23:22:14.121Z,3.73
2023-03-15T23:27:15.911Z,3.47
2023-03-15T23:32:18.215Z,4.20
2023-03-15T23:37:20.850Z,3.77
2023-03-15T23:42:25.984Z,3.90
2023-03-15T23:47:28.131Z,3.70
2023-03-15T23:52:30.229Z,3.60
2023-03-15T23:57:32.527Z,3.13
